createdAt,value
2023-05-02T00:02:03.063Z,66.70
2023-05-02T00:04:47.964Z,66.85
2023-05-02T00:07:33.071Z,67.00
2023-05-02T00:10:17.971Z,67.61
2023-05-02T00:13:03.056Z,67.96
2023-05-02T00:15:48.042Z,67.59
2023-05-02T00:18:33.084Z,67.43
2023-05-02T00:21:18.101Z,67.43
2023-05-02T00:24:03.114Z,66.76
2023-05-02T00:26:48.126Z,67.14
2023-05-02T00:29:33.026Z,66.17
2023-05-02T00:32:18.120Z,67.26
2023-05-02T00:35:03.123Z,66.85
2023-05-02T00:37:48.065Z,66.50
2023-05-02T00:40:33.052Z,66.21
2023-05-02T00:43:18.103Z,66.19
2023-05-02T00:46:03.129Z,65.71
2023-05-02T00:48:48.223Z,65.11
2023-05-02T00:51:33.333Z,65.48
2023-05-02T00:54:18.233Z,65.20
2023-05-02T00:57:03.273Z,65.44
2023-05-02T00:59:48.183Z,65.47
2023-05-02T01:02:33.329Z,65.68
2023-05-02T01:05:18.059Z,65.95
2023-05-02T01:08:03.088Z,65.27
2023-05-02T01:10:48.146Z,65.35
2023-05-02T01:13:33.090Z,64.47
2023-05-02T01:16:18.211Z,64.32
2023-05-02T01:19:03.046Z,64.37
2023-05-02T01:21:48.164Z,64.93
2023-05-02T01:24:33.102Z,64.85
2023-05-02T01:27:18.237Z,64.08
2023-05-02T01:30:03.208Z,63.73
2023-05-02T01:32:48.196Z,63.75
2023-05-02T01:35:33.305Z,62.75
2023-05-02T01:38:18.378Z,63.97
2023-05-02T01:41:03.423Z,64.56
2023-05-02T01:43:48.345Z,64.77
2023-05-02T01:46:33.511Z,64.90
2023-05-02T01:49:18.332Z,64.79
2023-05-02T01:52:03.432Z,66.26
2023-05-02T01:54:48.300Z,66.39
2023-05-02T01:57:33.245Z,66.72
2023-05-02T02:00:18.408Z,66.94
2023-05-02T02:03:03.354Z,67.36
2023-05-02T02:05:48.439Z,66.31
2023-05-02T02:08:33.471Z,65.77
2023-05-02T02:11:18.486Z,66.44
2023-05-02T02:14:03.542Z,65.79
2023-05-02T02:16:48.688Z,66.05
2023-05-02T02:19:33.631Z,65.59
2023-05-02T02:22:18.600Z,65.25
2023-05-02T02:25:03.784Z,66.09
2023-05-02T02:27:48.753Z,66.10
2023-05-02T02:30:33.847Z,66.48
2023-05-02T02:33:18.749Z,67.15
2023-05-02T02:36:03.832Z,66.99
2023-05-02T02:38:48.760Z,66.98
2023-05-02T02:41:33.737Z,67.01
2023-05-02T02:44:18.857Z,66.80
2023-05-02T02:47:03.956Z,66.32
2023-05-02T02:49:49.041Z,67.16
2023-05-02T02:52:33.991Z,66.75
2023-05-02T02:55:19.083Z,67.83
2023-05-02T02:58:03.979Z,68.28
2023-05-02T03:00:49.048Z,67.28
2023-05-02T03:03:34.105Z,68.00
2023-05-02T03:06:19.073Z,68.17
2023-05-02T03:09:04.125Z,67.00
2023-05-02T03:11:49.135Z,67.19
2023-05-02T03:14:34.229Z,67.59
2023-05-02T03:17:19.123Z,67.53
2023-05-02T03:20:04.134Z,67.22
2023-05-02T03:22:49.102Z,66.58
2023-05-02T03:25:34.180Z,66.22
2023-05-02T03:28:19.281Z,65.37
2023-05-02T03:31:04.264Z,66.02
2023-05-02T03:33:49.395Z,66.36
2023-05-02T03:36:34.047Z,66.26
2023-05-02T03:39:19.245Z,66.05
2023-05-02T03:42:04.066Z,66.19
2023-05-02T03:44:49.233Z,66.90
2023-05-02T03:47:34.149Z,66.80
2023-05-02T03:50:18.907Z,66.68
2023-05-02T03:53:04.000Z,67.56
2023-05-02T03:55:48.990Z,68.28
2023-05-02T03:58:34.036Z,68.75
2023-05-02T04:01:19.003Z,68.25
2023-05-02T04:04:04.060Z,68.48
2023-05-02T04:06:49.151Z,68.27
2023-05-02T04:09:34.092Z,68.28
2023-05-02T04:12:19.003Z,68.75
2023-05-02T04:15:03.888Z,69.10
2023-05-02T04:17:48.977Z,68.67
2023-05-02T04:20:33.972Z,69.10
2023-05-02T04:23:19.141Z,69.19
2023-05-02T04:26:04.011Z,68.81
2023-05-02T04:28:49.251Z,68.38
2023-05-02T04:31:34.349Z,68.45
2023-05-02T04:34:19.322Z,68.60
2023-05-02T04:37:04.499Z,68.74
2023-05-02T04:39:49.261Z,68.84
2023-05-02T04:42:34.372Z,68.37
2023-05-02T04:45:19.362Z,67.87
2023-05-02T04:48:04.355Z,67.94
2023-05-02T04:50:50.364Z,67.88
2023-05-02T04:53:35.129Z,67.59
2023-05-02T04:56:20.159Z,66.95
2023-05-02T04:59:05.092Z,66.79
2023-05-02T05:01:50.331Z,66.72
2023-05-02T05:04:35.034Z,67.39
2023-05-02T05:07:20.226Z,68.01
2023-05-02T05:10:05.260Z,66.45
2023-05-02T05:12:50.346Z,66.15
2023-05-02T05:15:35.424Z,66.16
2023-05-02T05:18:20.350Z,66.16
2023-05-02T05:21:05.470Z,65.66
2023-05-02T05:23:50.359Z,65.68
2023-05-02T05:26:35.524Z,66.91
2023-05-02T05:29:20.509Z,66.68
2023-05-02T05:32:05.591Z,67.44
2023-05-02T05:34:50.482Z,69.29
2023-05-02T05:37:35.624Z,69.80
2023-05-02T05:40:20.753Z,70.45
2023-05-02T05:43:05.735Z,71.81
2023-05-02T05:45:50.828Z,71.87
2023-05-02T05:48:35.710Z,72.79
2023-05-02T05:51:20.859Z,72.34
2023-05-02T05:54:05.856Z,72.51
2023-05-02T05:56:50.941Z,72.21
2023-05-02T05:59:35.861Z,71.42
2023-05-02T06:02:20.828Z,70.04
2023-05-02T06:05:05.890Z,69.10
2023-05-02T06:07:50.893Z,67.97
2023-05-02T06:10:35.889Z,68.09
2023-05-02T06:13:20.863Z,66.51
2023-05-02T06:16:06.123Z,65.77
2023-05-02T06:18:51.037Z,65.46
2023-05-02T06:21:36.076Z,65.49
2023-05-02T06:24:21.017Z,64.49
2023-05-02T06:27:05.907Z,63.92
2023-05-02T06:29:51.153Z,63.47
2023-05-02T06:32:36.076Z,57.63
2023-05-02T06:35:21.186Z,47.82
2023-05-02T06:38:06.167Z,47.55
2023-05-02T06:40:51.187Z,47.60
2023-05-02T06:43:36.157Z,47.54
2023-05-02T06:46:21.363Z,49.11
2023-05-02T06:49:06.220Z,43.34
2023-05-02T06:51:51.047Z,43.56
2023-05-02T06:54:36.252Z,48.99
2023-05-02T06:57:21.080Z,51.83
2023-05-02T07:00:06.111Z,52.92
2023-05-02T07:02:51.013Z,56.13
2023-05-02T07:05:35.992Z,52.47
2023-05-02T07:08:20.892Z,52.87
2023-05-02T07:11:05.938Z,54.00
2023-05-02T07:13:50.884Z,54.81
2023-05-02T07:16:35.986Z,55.60
2023-05-02T07:19:21.091Z,57.91
2023-05-02T07:22:05.971Z,59.94
2023-05-02T07:24:51.169Z,59.04
2023-05-02T07:27:36.122Z,59.08
2023-05-02T07:30:21.198Z,57.73
2023-05-02T07:33:06.270Z,57.91
2023-05-02T07:35:51.128Z,58.33
2023-05-02T07:38:36.394Z,58.26
2023-05-02T07:41:21.384Z,57.95
2023-05-02T07:44:06.577Z,56.80
2023-05-02T07:46:51.543Z,57.72
2023-05-02T07:49:36.712Z,58.84
2023-05-02T07:52:21.718Z,57.79
2023-05-02T07:55:06.748Z,55.74
2023-05-02T07:57:51.900Z,55.41
2023-05-02T08:00:36.908Z,56.61
2023-05-02T08:03:22.170Z,58.33
2023-05-02T08:06:07.040Z,58.47
2023-05-02T08:08:51.980Z,61.31
2023-05-02T08:11:36.921Z,64.30
2023-05-02T08:14:21.959Z,64.41
2023-05-02T08:17:06.980Z,63.17
2023-05-02T08:19:51.933Z,63.73
2023-05-02T08:22:37.154Z,60.39
2023-05-02T08:25:22.124Z,61.16
2023-05-02T08:28:07.334Z,62.62
2023-05-02T08:30:52.298Z,62.54
2023-05-02T08:33:37.345Z,62.73
2023-05-02T08:36:22.406Z,61.93
2023-05-02T08:39:07.292Z,59.71
2023-05-02T08:41:52.357Z,60.42
2023-05-02T08:44:37.225Z,58.85
2023-05-02T08:47:22.299Z,55.15
2023-05-02T08:50:07.204Z,54.44
2023-05-02T08:52:52.235Z,57.19
2023-05-02T08:55:37.210Z,58.37
2023-05-02T08:58:22.228Z,55.46
2023-05-02T09:01:07.278Z,58.36
2023-05-02T09:03:52.230Z,57.38
2023-05-02T09:06:37.279Z,56.33
2023-05-02T09:09:22.096Z,57.73
2023-05-02T09:12:07.177Z,58.05
2023-05-02T09:14:52.169Z,60.10
2023-05-02T09:17:37.322Z,63.06
2023-05-02T09:20:22.413Z,60.26
2023-05-02T09:23:07.260Z,59.51
2023-05-02T09:25:52.243Z,61.11
2023-05-02T09:28:37.299Z,61.23
2023-05-02T09:31:37.628Z,60.00
2023-05-02T09:34:27.378Z,59.39
2023-05-02T09:37:12.343Z,61.76
2023-05-02T09:39:57.505Z,61.15
2023-05-02T09:42:42.506Z,61.39
2023-05-02T09:45:27.476Z,59.33
2023-05-02T09:48:12.367Z,59.41
2023-05-02T09:50:57.573Z,56.29
2023-05-02T09:53:42.493Z,55.89
2023-05-02T09:56:27.579Z,56.04
2023-05-02T09:59:12.642Z,54.74
2023-05-02T10:01:57.694Z,54.47
2023-05-02T10:04:42.843Z,56.15
2023-05-02T10:07:28.085Z,56.99
2023-05-02T10:10:13.087Z,54.68
2023-05-02T10:12:58.064Z,57.21
2023-05-02T10:15:43.183Z,53.46
2023-05-02T10:18:28.121Z,54.29
2023-05-02T10:21:13.113Z,55.63
2023-05-02T10:23:58.249Z,51.83
2023-05-02T10:26:43.073Z,49.76
2023-05-02T10:29:28.047Z,52.18
2023-05-02T10:32:12.970Z,51.02
2023-05-02T10:34:58.342Z,52.99
2023-05-02T10:37:43.186Z,47.61
2023-05-02T10:40:28.212Z,46.96
2023-05-02T10:43:13.267Z,48.93
2023-05-02T10:45:58.112Z,50.81
2023-05-02T10:48:43.232Z,51.71
2023-05-02T10:51:28.241Z,49.77
2023-05-02T10:54:13.349Z,51.31
2023-05-02T10:56:58.307Z,51.09
2023-05-02T10:59:43.312Z,50.00
2023-05-02T11:02:28.648Z,52.23
2023-05-02T11:05:13.314Z,49.97
2023-05-02T11:07:58.480Z,46.32
2023-05-02T11:10:43.569Z,48.13
2023-05-02T11:13:28.695Z,46.97
2023-05-02T11:16:13.777Z,49.58
2023-05-02T11:18:58.916Z,47.34
2023-05-02T11:21:43.792Z,45.58
2023-05-02T11:24:28.812Z,46.84
2023-05-02T11:27:13.835Z,46.54
2023-05-02T11:29:58.862Z,45.42
2023-05-02T11:32:43.946Z,46.37
2023-05-02T11:35:28.862Z,42.43
2023-05-02T11:38:13.963Z,42.14
2023-05-02T11:40:59.000Z,40.49
2023-05-02T11:43:44.029Z,43.42
2023-05-02T11:46:29.035Z,45.06
2023-05-02T11:49:15.172Z,45.29
2023-05-02T11:52:00.275Z,44.94
2023-05-02T11:54:45.320Z,44.66
2023-05-02T11:57:30.419Z,42.80
2023-05-02T12:00:15.404Z,41.71
2023-05-02T12:03:00.583Z,42.32
2023-05-02T12:05:45.517Z,40.18
2023-05-02T12:08:30.354Z,38.33
2023-05-02T12:11:15.431Z,41.74
2023-05-02T12:14:00.327Z,37.27
2023-05-02T12:16:45.438Z,40.29
2023-05-02T12:19:30.349Z,37.78
2023-05-02T12:22:15.475Z,36.99
2023-05-02T12:25:00.687Z,37.33
2023-05-02T12:27:45.657Z,41.12
2023-05-02T12:30:30.650Z,37.84
2023-05-02T12:33:15.697Z,37.45
2023-05-02T12:36:00.782Z,37.67
2023-05-02T12:38:45.659Z,38.96
2023-05-02T12:41:30.751Z,38.27
2023-05-02T12:44:15.864Z,37.88
2023-05-02T12:47:00.983Z,38.01
2023-05-02T12:49:45.947Z,37.00
2023-05-02T12:52:30.889Z,37.11
2023-05-02T12:55:16.047Z,37.50
2023-05-02T12:58:00.908Z,39.20
2023-05-02T13:00:47.800Z,37.58
2023-05-02T13:03:32.971Z,39.24
2023-05-02T13:06:17.974Z,38.20
2023-05-02T13:09:02.903Z,37.33
2023-05-02T13:11:47.635Z,36.88
2023-05-02T13:14:32.647Z,37.05
2023-05-02T13:17:17.866Z,37.58
2023-05-02T13:20:02.851Z,36.62
2023-05-02T13:22:47.820Z,37.40
2023-05-02T13:25:32.909Z,35.83
2023-05-02T13:28:17.818Z,36.96
2023-05-02T13:31:02.951Z,37.06
2023-05-02T13:33:47.929Z,36.60
2023-05-02T13:36:32.770Z,37.69
2023-05-02T13:39:17.889Z,35.34
2023-05-02T13:42:03.731Z,37.62
2023-05-02T13:44:50.231Z,36.99
2023-05-02T13:47:35.219Z,36.80
2023-05-02T13:50:20.179Z,36.91
2023-05-02T13:53:05.253Z,37.92
2023-05-02T13:55:50.220Z,36.21
2023-05-02T13:58:35.314Z,37.58
2023-05-02T14:01:20.302Z,36.96
2023-05-02T14:04:05.522Z,37.22
2023-05-02T14:06:50.448Z,35.91
2023-05-02T14:09:35.338Z,35.54
2023-05-02T14:12:20.397Z,36.30
2023-05-02T14:15:05.362Z,36.65
2023-05-02T14:17:50.449Z,36.18
2023-05-02T14:20:35.293Z,35.68
2023-05-02T14:23:20.411Z,36.05
2023-05-02T14:26:05.484Z,33.69
2023-05-02T14:28:50.287Z,34.16
2023-05-02T14:31:35.336Z,35.28
2023-05-02T14:34:20.263Z,34.75
2023-05-02T14:37:05.389Z,35.68
2023-05-02T14:39:51.692Z,34.41
2023-05-02T14:42:38.918Z,34.05
2023-05-02T14:45:23.937Z,33.13
2023-05-02T14:48:08.919Z,34.11
2023-05-02T14:50:53.910Z,34.18
2023-05-02T14:53:38.759Z,32.34
2023-05-02T14:56:23.811Z,31.77
2023-05-02T14:59:08.929Z,31.02
2023-05-02T15:01:53.798Z,30.18
2023-05-02T15:04:38.780Z,31.50
2023-05-02T15:07:23.970Z,31.83
2023-05-02T15:10:08.872Z,31.71
2023-05-02T15:12:53.807Z,31.29
2023-05-02T15:15:39.024Z,31.44
2023-05-02T15:18:24.040Z,33.59
2023-05-02T15:21:09.144Z,31.66
2023-05-02T15:23:53.975Z,31.63
2023-05-02T15:26:38.974Z,30.78
2023-05-02T15:29:23.780Z,30.14
2023-05-02T15:32:08.724Z,30.99
2023-05-02T15:34:53.686Z,30.80
2023-05-02T15:37:38.687Z,30.14
2023-05-02T15:40:23.668Z,31.09
2023-05-02T15:43:08.537Z,31.14
2023-05-02T15:45:53.501Z,32.15
2023-05-02T15:48:38.374Z,30.71
2023-05-02T15:51:23.311Z,29.95
2023-05-02T15:54:08.295Z,29.79
2023-05-02T15:56:53.316Z,30.34
2023-05-02T15:59:38.490Z,30.26
2023-05-02T16:02:23.514Z,30.14
2023-05-02T16:05:08.652Z,29.74
2023-05-02T16:07:53.666Z,31.55
2023-05-02T16:10:38.720Z,32.38
2023-05-02T16:13:23.584Z,30.40
2023-05-02T16:16:08.671Z,29.63
2023-05-02T16:18:53.660Z,29.67
2023-05-02T16:21:38.504Z,31.35
2023-05-02T16:24:23.692Z,30.36
2023-05-02T16:27:08.814Z,29.35
2023-05-02T16:29:53.998Z,29.84
2023-05-02T16:32:39.047Z,30.11
2023-05-02T16:35:24.028Z,30.29
2023-05-02T16:38:08.939Z,28.93
2023-05-02T16:40:53.987Z,29.33
2023-05-02T16:43:39.099Z,29.79
2023-05-02T16:46:24.072Z,29.61
2023-05-02T16:49:09.179Z,30.09
2023-05-02T16:51:54.032Z,29.29
2023-05-02T16:54:39.023Z,29.28
2023-05-02T16:57:23.859Z,29.58
2023-05-02T17:00:08.858Z,29.91
2023-05-02T17:02:53.964Z,30.98
2023-05-02T17:05:38.851Z,32.09
2023-05-02T17:08:23.963Z,32.22
2023-05-02T17:11:08.827Z,31.78
2023-05-02T17:13:53.784Z,30.42
2023-05-02T17:16:38.828Z,29.89
2023-05-02T17:19:23.948Z,31.43
2023-05-02T17:22:08.845Z,31.31
2023-05-02T17:24:53.913Z,32.39
2023-05-02T17:27:41.006Z,32.93
2023-05-02T17:30:25.729Z,31.90
2023-05-02T17:33:10.799Z,32.32
2023-05-02T17:35:55.675Z,31.11
2023-05-02T17:38:40.739Z,32.93
2023-05-02T17:41:25.660Z,31.85
2023-05-02T17:44:10.530Z,32.23
2023-05-02T17:46:55.859Z,32.50
2023-05-02T17:49:40.591Z,33.15
2023-05-02T17:52:25.703Z,32.20
2023-05-02T17:55:10.636Z,32.44
2023-05-02T17:57:55.776Z,32.58
2023-05-02T18:00:40.715Z,32.41
2023-05-02T18:03:25.826Z,33.97
2023-05-02T18:06:10.753Z,33.48
2023-05-02T18:08:55.433Z,33.57
2023-05-02T18:11:40.671Z,33.18
2023-05-02T18:14:25.527Z,33.52
2023-05-02T18:17:10.539Z,33.39
2023-05-02T18:19:55.517Z,34.32
2023-05-02T18:22:40.396Z,34.79
2023-05-02T18:25:25.328Z,34.95
2023-05-02T18:28:10.342Z,34.32
2023-05-02T18:30:55.371Z,34.26
2023-05-02T18:33:40.221Z,35.32
2023-05-02T18:36:25.368Z,34.70
2023-05-02T18:39:10.339Z,34.88
2023-05-02T18:41:55.359Z,35.20
2023-05-02T18:44:40.200Z,35.08
2023-05-02T18:47:25.166Z,34.55
2023-05-02T18:50:10.043Z,35.33
2023-05-02T18:52:55.166Z,35.00
2023-05-02T18:55:40.188Z,34.98
2023-05-02T18:58:25.063Z,36.23
2023-05-02T19:01:10.183Z,36.18
2023-05-02T19:03:55.134Z,37.25
2023-05-02T19:06:40.228Z,37.07
2023-05-02T19:09:25.135Z,36.96
2023-05-02T19:12:10.176Z,37.17
2023-05-02T19:14:55.229Z,38.24
2023-05-02T19:17:40.251Z,38.41
2023-05-02T19:20:25.132Z,37.73
2023-05-02T19:23:19.699Z,37.55
2023-05-02T19:26:05.080Z,38.07
2023-05-02T19:28:50.203Z,37.96
2023-05-02T19:31:35.291Z,38.44
2023-05-02T19:34:20.243Z,38.28
2023-05-02T19:37:05.183Z,39.41
2023-05-02T19:39:50.267Z,40.26
2023-05-02T19:42:35.320Z,40.07
2023-05-02T19:45:20.252Z,39.68
2023-05-02T19:48:05.437Z,40.25
2023-05-02T19:50:50.322Z,40.15
2023-05-02T19:53:35.354Z,41.25
2023-05-02T19:56:20.385Z,42.14
2023-05-02T19:59:05.212Z,41.57
2023-05-02T20:01:50.241Z,41.75
2023-05-02T20:04:35.124Z,42.08
2023-05-02T20:07:20.178Z,42.67
2023-05-02T20:10:05.326Z,42.44
2023-05-02T20:12:50.215Z,42.19
2023-05-02T20:15:35.211Z,43.07
2023-05-02T20:18:20.160Z,43.99
2023-05-02T20:21:05.157Z,43.61
2023-05-02T20:23:50.090Z,44.07
2023-05-02T20:26:35.227Z,43.76
2023-05-02T20:29:20.166Z,43.77
2023-05-02T20:32:05.235Z,44.06
2023-05-02T20:34:50.181Z,44.12
2023-05-02T20:37:35.314Z,44.09
2023-05-02T20:40:20.248Z,44.16
2023-05-02T20:43:05.313Z,43.91
2023-05-02T20:45:50.309Z,43.66
2023-05-02T20:48:35.194Z,43.78
2023-05-02T20:51:20.256Z,44.20
2023-05-02T20:54:05.174Z,44.10
2023-05-02T20:56:50.216Z,44.16
2023-05-02T20:59:35.022Z,44.63
2023-05-02T21:02:20.143Z,44.48
2023-05-02T21:05:05.116Z,44.66
2023-05-02T21:07:50.025Z,44.17
2023-05-02T21:10:35.160Z,43.82
2023-05-02T21:13:20.194Z,44.32
2023-05-02T21:16:05.298Z,45.22
2023-05-02T21:18:50.112Z,45.05
2023-05-02T21:21:35.186Z,44.97
2023-05-02T21:24:20.031Z,44.51
2023-05-02T21:27:05.178Z,44.99
2023-05-02T21:29:50.210Z,44.77
2023-05-02T21:32:35.145Z,44.59
2023-05-02T21:35:20.125Z,44.26
2023-05-02T21:38:05.117Z,43.84
2023-05-02T21:40:50.076Z,44.42
2023-05-02T21:43:35.028Z,44.33
2023-05-02T21:46:20.222Z,44.46
2023-05-02T21:49:05.060Z,44.36
2023-05-02T21:51:50.097Z,43.55
2023-05-02T21:54:35.136Z,43.69
2023-05-02T21:57:20.106Z,44.41
2023-05-02T22:00:05.456Z,45.26
2023-05-02T22:02:50.847Z,45.60
2023-05-02T22:05:35.611Z,45.18
2023-05-02T22:08:20.599Z,44.81
2023-05-02T22:11:05.668Z,45.99
2023-05-02T22:13:50.671Z,45.41
2023-05-02T22:16:35.628Z,45.99
2023-05-02T22:19:20.732Z,46.37
2023-05-02T22:22:05.813Z,47.79
2023-05-02T22:24:51.029Z,47.36
2023-05-02T22:27:35.952Z,47.64
2023-05-02T22:30:21.034Z,47.60
2023-05-02T22:33:05.976Z,47.83
2023-05-02T22:35:50.921Z,47.79
2023-05-02T22:38:35.947Z,48.38
2023-05-02T22:41:20.906Z,48.73
2023-05-02T22:44:06.180Z,49.55
2023-05-02T22:46:51.229Z,49.73
2023-05-02T22:49:35.976Z,49.70
2023-05-02T22:52:21.002Z,50.94
2023-05-02T22:55:06.055Z,49.97
2023-05-02T22:57:51.072Z,50.54
2023-05-02T23:00:36.071Z,50.08
2023-05-02T23:03:21.169Z,50.74
2023-05-02T23:06:05.908Z,51.13
2023-05-02T23:08:50.926Z,50.60
2023-05-02T23:11:35.814Z,50.22
2023-05-02T23:14:20.812Z,50.63
2023-05-02T23:17:05.620Z,50.81
2023-05-02T23:19:50.712Z,51.87
2023-05-02T23:22:35.566Z,51.37
2023-05-02T23:25:20.665Z,51.17
2023-05-02T23:28:07.683Z,51.37
2023-05-02T23:30:52.622Z,51.27
2023-05-02T23:33:37.713Z,51.59
2023-05-02T23:36:22.581Z,50.98
2023-05-02T23:39:07.528Z,51.94
2023-05-02T23:41:52.639Z,51.22
2023-05-02T23:44:37.582Z,51.15
2023-05-02T23:47:22.745Z,50.90
2023-05-02T23:50:07.664Z,50.25
2023-05-02T23:52:52.709Z,50.44
2023-05-02T23:55:37.679Z,50.05
2023-05-02T23:58:22.622Z,50.71
